createdAt,value
2022-12-11T00:02:49.432Z,34.55
2022-12-11T00:07:51.021Z,36.28
2022-12-11T00:12:52.757Z,33.58
2022-12-11T00:17:54.216Z,34.38
2022-12-11T00:22:56.229Z,33.10
2022-12-11T00:27:57.829Z,30.45
2022-12-11T00:33:00.061Z,33.38
2022-12-11T00:38:02.003Z,31.25
2022-12-11T00:43:04.170Z,34.10
2022-12-11T00:48:05.963Z,35.45
2022-12-11T00:53:07.880Z,32.08
2022-12-11T00:58:11.558Z,31.80
2022-12-11T01:03:14.906Z,35.92
2022-12-11T01:08:16.453Z,34.10
2022-12-11T01:13:17.941Z,31.90
2022-12-11T01:18:19.379Z,31.13
2022-12-11T01:23:20.841Z,30.42
2022-12-11T01:28:22.327Z,31.67
2022-12-11T01:33:23.760Z,34.20
2022-12-11T01:38:25.212Z,34.40
2022-12-11T01:43:26.626Z,33.30
2022-12-11T01:48:31.368Z,34.13
2022-12-11T01:53:43.434Z,34.92
2022-12-11T01:58:52.264Z,31.50
2022-12-11T02:03:55.598Z,37.50
2022-12-11T02:08:57.140Z,41.58
2022-12-11T02:14:16.174Z,40.33
2022-12-11T02:19:29.749Z,42.33
2022-12-11T02:25:16.326Z,39.33
2022-12-11T02:30:17.862Z,39.85
2022-12-11T02:35:24.608Z,43.03
2022-12-11T02:40:30.051Z,44.15
2022-12-11T02:45:33.869Z,45.80
2022-12-11T02:50:39.178Z,38.25
2022-12-11T02:55:42.600Z,35.22
2022-12-11T03:00:45.433Z,42.55
2022-12-11T03:05:47.558Z,46.25
2022-12-11T03:10:49.069Z,41.10
2022-12-11T03:16:08.256Z,39.60
2022-12-11T03:21:19.886Z,38.60
2022-12-11T03:26:23.820Z,40.63
2022-12-11T03:31:43.614Z,39.97
2022-12-11T03:36:47.536Z,43.53
2022-12-11T03:41:51.122Z,37.35
2022-12-11T03:46:54.985Z,36.35
2022-12-11T03:51:58.255Z,36.10
2022-12-11T03:57:02.754Z,39.38
2022-12-11T04:02:11.114Z,35.60
2022-12-11T04:07:12.665Z,33.95
2022-12-11T04:12:14.153Z,43.38
2022-12-11T04:17:36.129Z,38.85
2022-12-11T04:22:56.224Z,34.33
2022-12-11T04:27:57.699Z,25.38
2022-12-11T04:32:59.116Z,26.80
2022-12-11T04:38:01.201Z,15.23
2022-12-11T04:43:02.718Z,21.52
2022-12-11T04:48:04.385Z,20.00
2022-12-11T04:53:05.815Z,22.88
2022-12-11T04:58:07.218Z,20.63
2022-12-11T05:03:09.131Z,23.60
2022-12-11T05:08:10.686Z,23.13
2022-12-11T05:13:12.286Z,21.92
2022-12-11T05:18:13.663Z,22.02
2022-12-11T05:23:15.038Z,17.25
2022-12-11T05:28:16.416Z,19.55
2022-12-11T05:33:17.888Z,18.83
2022-12-11T05:38:19.930Z,22.17
2022-12-11T05:43:21.397Z,25.65
2022-12-11T05:48:23.131Z,25.55
2022-12-11T05:53:24.777Z,26.83
2022-12-11T05:58:26.252Z,24.52
2022-12-11T06:03:28.092Z,24.23
2022-12-11T06:08:29.880Z,25.00
2022-12-11T06:13:31.297Z,24.27
2022-12-11T06:18:36.991Z,21.83
2022-12-11T06:23:38.430Z,18.90
2022-12-11T06:28:40.049Z,19.88
2022-12-11T06:33:41.862Z,20.85
2022-12-11T06:38:43.900Z,21.38
2022-12-11T06:43:45.424Z,23.17
2022-12-11T06:48:48.238Z,20.92
2022-12-11T06:53:55.314Z,21.13
2022-12-11T07:04:00.093Z,15.07
2022-12-11T07:09:04.306Z,16.58
2022-12-11T07:14:05.829Z,16.92
2022-12-11T07:19:08.725Z,16.13
2022-12-11T07:24:10.334Z,17.25
2022-12-11T07:29:11.868Z,17.85
2022-12-11T07:34:14.216Z,17.38
2022-12-11T07:39:18.494Z,14.07
2022-12-11T07:44:19.962Z,14.70
2022-12-11T07:49:21.516Z,16.08
2022-12-11T07:54:23.051Z,16.50
2022-12-11T07:59:26.854Z,12.20
2022-12-11T08:04:29.944Z,12.90
2022-12-11T08:09:31.418Z,12.57
2022-12-11T08:14:32.834Z,12.32
2022-12-11T08:19:34.353Z,9.85
2022-12-11T08:24:37.284Z,12.70
2022-12-11T08:29:39.027Z,12.18
2022-12-11T08:34:40.516Z,10.70
2022-12-11T08:39:43.414Z,13.18
2022-12-11T08:44:44.900Z,12.27
2022-12-11T08:49:46.837Z,12.57
2022-12-11T08:54:48.350Z,14.68
2022-12-11T08:59:50.435Z,14.25
2022-12-11T09:04:51.901Z,12.68
2022-12-11T09:09:56.388Z,15.95
2022-12-11T09:14:57.844Z,17.35
2022-12-11T09:19:59.367Z,14.20
2022-12-11T09:25:02.034Z,14.13
2022-12-11T09:30:08.072Z,14.05
2022-12-11T09:35:13.847Z,18.08
2022-12-11T09:40:17.064Z,14.02
2022-12-11T09:45:19.003Z,14.43
2022-12-11T09:50:26.240Z,14.25
2022-12-11T09:55:41.435Z,14.38
2022-12-11T10:01:09.752Z,14.40
2022-12-11T10:06:45.491Z,14.32
2022-12-11T10:12:04.413Z,16.17
2022-12-11T10:36:18.888Z,13.05
2022-12-11T10:41:24.660Z,15.30
2022-12-11T10:46:29.023Z,14.25
2022-12-11T10:51:30.580Z,13.82
2022-12-11T10:56:34.140Z,14.43
2022-12-11T11:01:35.948Z,16.80
2022-12-11T11:06:37.652Z,14.88
2022-12-11T11:11:40.363Z,15.00
2022-12-11T11:16:45.892Z,15.93
2022-12-11T11:21:53.871Z,17.45
2022-12-11T11:27:12.883Z,17.42
2022-12-11T11:32:28.799Z,16.58
2022-12-11T11:37:34.460Z,16.58
2022-12-11T11:42:46.908Z,15.82
2022-12-11T11:48:09.460Z,16.52
2022-12-11T11:53:30.668Z,14.75
2022-12-11T11:58:45.236Z,16.45
2022-12-11T12:03:52.241Z,15.18
2022-12-11T12:20:17.141Z,16.30
2022-12-11T12:25:42.766Z,16.98
2022-12-11T12:31:06.115Z,13.75
2022-12-11T12:36:26.855Z,16.88
2022-12-11T12:41:56.729Z,16.88
2022-12-11T12:47:12.281Z,14.68
2022-12-11T12:52:24.545Z,13.90
2022-12-11T12:57:26.280Z,16.13
2022-12-11T13:02:29.951Z,15.88
2022-12-11T13:07:33.200Z,16.00
2022-12-11T13:12:46.438Z,15.68
2022-12-11T13:17:51.456Z,15.02
2022-12-11T13:23:12.871Z,16.35
2022-12-11T13:28:38.503Z,14.27
2022-12-11T13:33:47.411Z,15.80
2022-12-11T13:38:53.606Z,18.88
2022-12-11T13:43:57.880Z,15.43
2022-12-11T13:49:02.249Z,16.75
2022-12-11T13:54:17.265Z,14.10
2022-12-11T13:59:29.320Z,15.57
2022-12-11T14:04:33.519Z,15.40
2022-12-11T14:09:43.538Z,14.63
2022-12-11T14:14:49.864Z,14.45
2022-12-11T14:19:52.440Z,18.23
2022-12-11T14:24:56.802Z,17.20
2022-12-11T14:30:01.207Z,14.95
2022-12-11T14:35:06.666Z,15.93
2022-12-11T14:40:18.542Z,15.27
2022-12-11T14:45:32.705Z,15.35
2022-12-11T14:50:40.653Z,18.25
2022-12-11T14:55:42.596Z,18.92
2022-12-11T15:00:56.074Z,19.95
2022-12-11T15:05:58.632Z,14.15
2022-12-11T15:11:08.477Z,16.70
2022-12-11T15:16:14.440Z,14.55
2022-12-11T15:21:16.706Z,13.70
2022-12-11T15:26:21.873Z,15.77
2022-12-11T15:31:30.051Z,14.63
2022-12-11T15:36:34.671Z,16.20
2022-12-11T15:41:39.351Z,17.08
2022-12-11T15:46:41.310Z,17.75
2022-12-11T15:51:43.511Z,17.75
2022-12-11T15:56:45.177Z,17.90
2022-12-11T16:01:48.050Z,17.08
2022-12-11T16:06:50.554Z,17.80
2022-12-11T16:11:51.994Z,17.55
2022-12-11T16:16:53.539Z,24.98
2022-12-11T16:21:57.166Z,19.70
2022-12-11T16:26:58.802Z,19.85
2022-12-11T16:32:00.878Z,21.67
2022-12-11T16:37:03.493Z,26.63
2022-12-11T16:42:05.917Z,19.40
2022-12-11T16:47:18.130Z,21.95
2022-12-11T16:52:22.264Z,16.63
2022-12-11T16:57:24.845Z,18.15
2022-12-11T17:02:26.344Z,22.20
2022-12-11T17:07:27.936Z,18.45
2022-12-11T17:12:29.913Z,17.38
2022-12-11T17:17:31.502Z,18.17
2022-12-11T17:22:32.916Z,17.98
2022-12-11T17:27:34.449Z,16.17
2022-12-11T17:32:35.903Z,20.20
2022-12-11T17:37:37.679Z,18.95
2022-12-11T17:42:39.220Z,15.93
2022-12-11T17:47:41.862Z,16.02
2022-12-11T17:52:44.504Z,15.38
2022-12-11T17:57:46.092Z,14.77
2022-12-11T18:02:47.606Z,14.75
2022-12-11T18:07:52.901Z,14.35
2022-12-11T18:12:59.401Z,12.38
2022-12-11T18:18:01.127Z,14.32
2022-12-11T18:23:03.317Z,16.13
2022-12-11T18:28:05.097Z,17.80
2022-12-11T18:33:06.855Z,13.63
2022-12-11T18:38:09.997Z,12.75
2022-12-11T18:43:11.739Z,13.73
2022-12-11T18:48:14.645Z,13.80
2022-12-11T18:53:17.454Z,13.32
2022-12-11T18:58:20.637Z,12.15
2022-12-11T19:03:22.106Z,12.88
2022-12-11T19:08:23.738Z,12.85
2022-12-11T19:13:25.243Z,13.57
2022-12-11T19:18:26.936Z,14.85
2022-12-11T19:23:28.443Z,14.27
2022-12-11T19:28:30.330Z,15.27
2022-12-11T19:33:31.914Z,14.48
2022-12-11T19:38:33.575Z,14.40
2022-12-11T19:43:38.016Z,16.45
2022-12-11T19:48:41.489Z,13.30
2022-12-11T19:53:44.984Z,14.10
2022-12-11T19:58:48.385Z,13.00
2022-12-11T20:03:49.831Z,14.02
2022-12-11T20:08:51.410Z,15.70
2022-12-11T20:13:55.527Z,13.48
2022-12-11T20:18:57.624Z,14.57
2022-12-11T20:23:59.977Z,13.05
2022-12-11T20:29:05.235Z,13.48
2022-12-11T20:34:08.001Z,13.10
2022-12-11T20:39:10.470Z,13.73
2022-12-11T20:44:12.984Z,12.48
2022-12-11T20:49:14.533Z,12.27
2022-12-11T20:54:16.035Z,14.73
2022-12-11T20:59:18.866Z,14.45
2022-12-11T21:04:20.621Z,19.15
2022-12-11T21:09:25.698Z,17.90
2022-12-11T21:14:27.887Z,15.88
2022-12-11T21:19:29.915Z,16.13
2022-12-11T21:24:31.480Z,16.67
2022-12-11T21:29:32.973Z,18.98
2022-12-11T21:34:34.654Z,15.98
2022-12-11T21:39:39.294Z,15.90
2022-12-11T21:50:02.509Z,13.80
2022-12-11T21:55:04.947Z,14.05
2022-12-11T22:00:07.251Z,15.80
2022-12-11T22:05:09.344Z,15.02
2022-12-11T22:10:11.231Z,12.88
2022-12-11T22:15:13.040Z,13.32
2022-12-11T22:20:14.701Z,13.43
2022-12-11T22:25:16.386Z,14.05
2022-12-11T22:30:17.879Z,15.30
2022-12-11T22:35:22.891Z,15.32
2022-12-11T22:40:27.496Z,15.48
2022-12-11T22:45:28.987Z,15.57
2022-12-11T22:50:30.909Z,15.38
2022-12-11T22:55:32.656Z,16.20
2022-12-11T23:00:34.161Z,16.10
2022-12-11T23:05:35.774Z,16.23
2022-12-11T23:10:40.479Z,14.65
2022-12-11T23:15:41.995Z,16.35
2022-12-11T23:20:43.434Z,16.55
2022-12-11T23:25:44.823Z,16.50
2022-12-11T23:30:46.281Z,17.90
2022-12-11T23:35:47.780Z,14.10
2022-12-11T23:40:49.291Z,16.25
2022-12-11T23:45:50.803Z,15.52
2022-12-11T23:50:52.572Z,15.82
2022-12-11T23:55:54.336Z,14.38
